Terminal Aerodrome Forecast
Issued by NWS Austin/San Antonio, TX

Home | Current Version | Previous Version | Text Only | Print | Product List | Glossary On
Versions: 1 2 3 4 5 6 7 8 9 10 11 12 13 14 15 16 17
000
FTUS44 KEWX 202300
TAFDRT
TAF
KDRT 202336Z 2100/2124 13006KT P6SM SKC
     FM210400 11006KT P6SM BKN015
     FM211100 11005KT 2SM BR OVC004
     FM211600 14006KT 6SM BR BKN012
     FM211800 14011KT P6SM SCT025 BKN040=

USA.gov is the U.S. government's official web portal to all federal, state and local government web resources and services.